Newton Upper Falls, MA (02464)

11:58 AM EST on January 20, 2017 (GMT -0500)
Newton Upper Falls | | Change Station

Elev 184 ft 42.31 °N, 71.22 °W | Updated 25 seconds ago

Overcast
Overcast
40.3 °F
Feels Like 40 °F
N
0.0
Wind Variable Wind from NE
Gusts 0.0 mph

Today
High -- | Low -- °F
--% Chance of Precip.
Yesterday
High -- | Low -- °F
Precip. -- in
Pressure 30.01 in
Visibility 10.0 miles
Clouds Overcast 2900 ft
Windchill 40 °F
Dew Point 28 °F
Humidity 61%
Rainfall 0.00 in
Snow Depth Not available.
7:08 AM 4:44 PM
Last Quarter, 43% visible
METAR KOWD 201653Z 00000KT 10SM OVC029 05/00 A3001 RMK AO2 SLP161 T00500000
Pressure 30.01 in
Visibility 10.0 miles
Clouds Overcast 2900 ft
Windchill 40 °F
Dew Point 28 °F
Humidity 61%
Rainfall 0.00 in
Snow Depth Not available.
7:08 AM 4:44 PM
Last Quarter, 43% visible
METAR KOWD 201653Z 00000KT 10SM OVC029 05/00 A3001 RMK AO2 SLP161 T00500000

Get Your Daily Forecast Email!

Thanks for signing up!

Be on the lookout for a verification email in your inbox.

You'll start receiving the daily forecast at 8 AM.

×

10-Day Weather Forecast

Almanac

Astronomy

Jan. 20, 2017 Rise Set
Actual Time
Civil Twilight
Nautical Twilight
Astronomical Twilight
Moon
Length of Visible Light
Length of Day
Tomorrow will be .
, % of the Moon is Illuminated

Today's Extremes

State Highs State Lows

Community

WunderPhotos

Upload Photos

1,962,540 photos uploaded!

WunderBlog® & News

Nearby

Air Quality

  Air Quality AQ Index Pollutant
Not available.

Snow Depth

Station Depth Elevation

Earthquake Activity

City Distance Mag. Time & Date
Minimum magnitude displayed is 2.5.

Coastal Water Temperatures

Place Temperature

Stations

Nearby Weather Stations

Station Location Temp. Windchill Dew Point Humidity Wind Precip. Elev Updated Type
                   

Watches & Warnings

There are currently no watches in effect.